createdAt,value
2018-07-11T00:00:13.126Z,1011.69
2018-07-11T00:01:13.128Z,1011.69
2018-07-11T00:02:13.138Z,1011.67
2018-07-11T00:03:13.140Z,1011.65
2018-07-11T00:04:13.130Z,1011.64
2018-07-11T00:05:13.336Z,1011.68
2018-07-11T00:06:13.124Z,1011.69
2018-07-11T00:07:13.136Z,1011.67
2018-07-11T00:08:13.128Z,1011.69
2018-07-11T00:09:13.124Z,1011.70
2018-07-11T00:10:13.136Z,1011.71
2018-07-11T00:11:13.336Z,1011.68
2018-07-11T00:12:13.122Z,1011.70
2018-07-11T00:13:13.124Z,1011.72
2018-07-11T00:14:13.126Z,1011.70
2018-07-11T00:15:13.122Z,1011.74
2018-07-11T00:16:13.326Z,1011.74
2018-07-11T00:17:13.122Z,1011.73
2018-07-11T00:18:13.337Z,1011.75
2018-07-11T00:19:13.122Z,1011.76
2018-07-11T00:20:13.138Z,1011.77
2018-07-11T00:21:13.137Z,1011.73
2018-07-11T00:22:13.140Z,1011.72
2018-07-11T00:23:13.145Z,1011.74
2018-07-11T00:24:13.119Z,1011.76
2018-07-11T00:25:13.139Z,1011.72
2018-07-11T00:26:13.120Z,1011.71
2018-07-11T00:27:13.130Z,1011.70
2018-07-11T00:28:13.122Z,1011.72
2018-07-11T00:29:13.118Z,1011.68
2018-07-11T00:30:13.130Z,1011.66
2018-07-11T00:31:13.118Z,1011.65
2018-07-11T00:32:13.116Z,1011.67
2018-07-11T00:33:13.117Z,1011.67
2018-07-11T00:34:13.124Z,1011.65
2018-07-11T00:35:13.120Z,1011.67
2018-07-11T00:36:13.118Z,1011.67
2018-07-11T00:37:13.389Z,1011.68
2018-07-11T00:38:13.320Z,1011.66
2018-07-11T00:39:13.319Z,1011.68
2018-07-11T00:40:13.131Z,1011.68
2018-07-11T00:41:13.117Z,1011.65
2018-07-11T00:42:13.129Z,1011.64
2018-07-11T00:43:13.115Z,1011.65
2018-07-11T00:44:13.115Z,1011.67
2018-07-11T00:45:13.113Z,1011.67
2018-07-11T00:46:13.115Z,1011.68
2018-07-11T00:47:13.317Z,1011.72
2018-07-11T00:48:13.114Z,1011.71
2018-07-11T00:49:13.339Z,1011.66
2018-07-11T00:50:13.115Z,1011.67
2018-07-11T00:51:13.127Z,1011.68
2018-07-11T00:52:13.111Z,1011.68
2018-07-11T00:53:13.121Z,1011.70
2018-07-11T00:54:13.128Z,1011.72
2018-07-11T00:55:13.109Z,1011.69
2018-07-11T00:56:13.112Z,1011.68
2018-07-11T00:57:13.113Z,1011.68
2018-07-11T00:58:13.111Z,1011.68
2018-07-11T00:59:13.311Z,1011.68
2018-07-11T01:00:13.110Z,1011.69
2018-07-11T01:01:13.341Z,1011.66
2018-07-11T01:02:13.107Z,1011.72
2018-07-11T01:03:13.106Z,1011.72
2018-07-11T01:04:13.107Z,1011.69
2018-07-11T01:05:13.125Z,1011.70
2018-07-11T01:06:13.322Z,1011.70
2018-07-11T01:07:13.124Z,1011.68
2018-07-11T01:08:13.117Z,1011.67
2018-07-11T01:09:13.107Z,1011.67
2018-07-11T01:10:13.103Z,1011.67
2018-07-11T01:11:13.116Z,1011.66
2018-07-11T01:12:13.307Z,1011.69
2018-07-11T01:13:13.105Z,1011.66
2018-07-11T01:14:13.327Z,1011.70
2018-07-11T01:15:13.103Z,1011.65
2018-07-11T01:16:13.124Z,1011.67
2018-07-11T01:17:13.128Z,1011.68
2018-07-11T01:18:13.100Z,1011.67
2018-07-11T01:19:13.113Z,1011.65
2018-07-11T01:20:13.110Z,1011.69
2018-07-11T01:21:13.116Z,1011.65
2018-07-11T01:22:13.099Z,1011.64
2018-07-11T01:23:13.132Z,1011.65
2018-07-11T01:24:13.107Z,1011.65
2018-07-11T01:25:13.109Z,1011.67
2018-07-11T01:26:13.098Z,1011.67
2018-07-11T01:27:13.107Z,1011.68
2018-07-11T01:28:13.096Z,1011.70
2018-07-11T01:29:13.095Z,1011.69
2018-07-11T01:30:13.097Z,1011.75
2018-07-11T01:31:13.109Z,1011.76
2018-07-11T01:32:13.104Z,1011.78
2018-07-11T01:33:13.301Z,1011.80
2018-07-11T01:34:13.099Z,1011.80
2018-07-11T01:35:13.104Z,1011.80
2018-07-11T01:36:13.108Z,1011.82
2018-07-11T01:37:13.304Z,1011.82
2018-07-11T01:38:13.106Z,1011.81
2018-07-11T01:39:13.090Z,1011.83
2018-07-11T01:40:13.093Z,1011.85
2018-07-11T01:41:13.303Z,1011.84
2018-07-11T01:42:13.100Z,1011.85
2018-07-11T01:43:13.089Z,1011.86
2018-07-11T01:44:13.101Z,1011.83
2018-07-11T01:45:13.297Z,1011.84
2018-07-11T01:46:13.109Z,1011.84
2018-07-11T01:47:13.086Z,1011.84
2018-07-11T01:48:13.086Z,1011.84
2018-07-11T01:49:13.085Z,1011.84
2018-07-11T01:50:13.287Z,1011.83
2018-07-11T01:51:13.103Z,1011.85
2018-07-11T01:52:13.086Z,1011.81
2018-07-11T01:53:13.086Z,1011.78
2018-07-11T01:54:13.085Z,1011.82
2018-07-11T01:55:13.096Z,1011.80
2018-07-11T01:56:13.080Z,1011.82
2018-07-11T01:57:13.081Z,1011.84
2018-07-11T01:58:13.095Z,1011.84
2018-07-11T01:59:13.081Z,1011.85
2018-07-11T02:00:13.092Z,1011.82
2018-07-11T02:01:13.293Z,1011.87
2018-07-11T02:02:13.285Z,1011.87
2018-07-11T02:03:13.085Z,1011.83
2018-07-11T02:04:13.294Z,1011.88
2018-07-11T02:05:13.082Z,1011.84
2018-07-11T02:06:13.092Z,1011.88
2018-07-11T02:07:13.078Z,1011.89
2018-07-11T02:08:13.087Z,1011.91
2018-07-11T02:09:13.088Z,1011.87
2018-07-11T02:10:13.303Z,1011.89
2018-07-11T02:11:13.078Z,1011.94
2018-07-11T02:12:13.084Z,1011.90
2018-07-11T02:13:13.318Z,1011.86
2018-07-11T02:14:13.076Z,1011.89
2018-07-11T02:15:13.088Z,1011.89
2018-07-11T02:16:13.076Z,1011.90
2018-07-11T02:17:13.303Z,1011.93
2018-07-11T02:18:13.076Z,1011.93
2018-07-11T02:19:13.103Z,1011.92
2018-07-11T02:20:13.089Z,1011.90
2018-07-11T02:21:13.077Z,1011.89
2018-07-11T02:22:13.077Z,1011.87
2018-07-11T02:23:13.076Z,1011.92
2018-07-11T02:24:13.097Z,1011.89
2018-07-11T02:25:13.077Z,1011.91
2018-07-11T02:26:13.279Z,1011.88
2018-07-11T02:27:13.092Z,1011.91
2018-07-11T02:28:13.102Z,1011.88
2018-07-11T02:29:13.093Z,1011.84
2018-07-11T02:30:13.080Z,1011.87
2018-07-11T02:31:13.085Z,1011.81
2018-07-11T02:32:13.091Z,1011.84
2018-07-11T02:33:13.309Z,1011.83
2018-07-11T02:34:13.092Z,1011.81
2018-07-11T02:35:13.292Z,1011.78
2018-07-11T02:36:13.079Z,1011.82
2018-07-11T02:37:13.081Z,1011.78
2018-07-11T02:38:13.088Z,1011.86
2018-07-11T02:39:13.088Z,1011.87
2018-07-11T02:40:13.281Z,1011.90
2018-07-11T02:41:13.290Z,1011.89
2018-07-11T02:42:13.089Z,1011.90
2018-07-11T02:43:13.291Z,1011.93
2018-07-11T02:44:13.077Z,1011.95
2018-07-11T02:45:13.281Z,1011.99
2018-07-11T02:46:13.082Z,1011.93
2018-07-11T02:47:13.292Z,1011.96
2018-07-11T02:48:13.103Z,1011.97
2018-07-11T02:49:13.291Z,1011.97
2018-07-11T02:50:13.087Z,1011.97
2018-07-11T02:51:13.077Z,1011.98
2018-07-11T02:52:13.087Z,1011.93
2018-07-11T02:53:13.075Z,1011.95
2018-07-11T02:54:13.077Z,1011.95
2018-07-11T02:55:13.075Z,1011.95
2018-07-11T02:56:13.093Z,1011.94
2018-07-11T02:57:13.276Z,1011.94
2018-07-11T02:58:13.277Z,1011.95
2018-07-11T02:59:13.109Z,1011.97
2018-07-11T03:00:13.104Z,1011.92
2018-07-11T03:01:13.107Z,1011.92
2018-07-11T03:02:13.101Z,1011.91
2018-07-11T03:03:13.288Z,1011.91
2018-07-11T03:04:13.288Z,1011.94
2018-07-11T03:05:13.075Z,1011.92
2018-07-11T03:06:13.076Z,1011.93
2018-07-11T03:07:13.080Z,1011.95
2018-07-11T03:08:13.087Z,1011.95
2018-07-11T03:09:13.071Z,1011.95
2018-07-11T03:10:13.288Z,1011.94
2018-07-11T03:11:13.071Z,1011.93
2018-07-11T03:12:13.273Z,1011.99
2018-07-11T03:13:13.275Z,1012.01
2018-07-11T03:14:13.282Z,1011.97
2018-07-11T03:15:13.071Z,1012.03
2018-07-11T03:16:13.071Z,1011.99
2018-07-11T03:17:13.288Z,1012.00
2018-07-11T03:18:13.085Z,1012.04
2018-07-11T03:19:13.274Z,1012.03
2018-07-11T03:20:13.070Z,1012.05
2018-07-11T03:21:13.291Z,1012.02
2018-07-11T03:22:13.285Z,1012.04
2018-07-11T03:23:13.270Z,1012.09
2018-07-11T03:24:13.071Z,1012.11
2018-07-11T03:25:13.068Z,1012.12
2018-07-11T03:26:13.069Z,1012.12
2018-07-11T03:27:13.067Z,1012.08
2018-07-11T03:28:13.084Z,1012.09
2018-07-11T03:29:13.067Z,1012.09
2018-07-11T03:30:13.095Z,1012.12
2018-07-11T03:31:13.269Z,1012.11
2018-07-11T03:32:13.068Z,1012.10
2018-07-11T03:33:13.079Z,1012.14
2018-07-11T03:34:13.273Z,1012.14
2018-07-11T03:35:13.071Z,1012.13
2018-07-11T03:36:13.073Z,1012.15
2018-07-11T03:37:13.070Z,1012.13
2018-07-11T03:38:13.069Z,1012.13
2018-07-11T03:39:13.282Z,1012.14
2018-07-11T03:40:13.070Z,1012.15
2018-07-11T03:41:13.069Z,1012.13
2018-07-11T03:42:13.068Z,1012.13
2018-07-11T03:43:13.079Z,1012.15
2018-07-11T03:44:13.072Z,1012.18
2018-07-11T03:45:13.070Z,1012.18
2018-07-11T03:46:13.084Z,1012.18
2018-07-11T03:47:13.069Z,1012.22
2018-07-11T03:48:13.085Z,1012.24
2018-07-11T03:49:13.282Z,1012.23
2018-07-11T03:50:13.079Z,1012.19
2018-07-11T03:51:13.082Z,1012.22
2018-07-11T03:52:13.088Z,1012.18
2018-07-11T03:53:13.278Z,1012.18
2018-07-11T03:54:13.082Z,1012.21
2018-07-11T03:55:13.071Z,1012.18
2018-07-11T03:56:13.070Z,1012.23
2018-07-11T03:57:13.088Z,1012.25
2018-07-11T03:58:13.071Z,1012.25
2018-07-11T03:59:13.073Z,1012.25
2018-07-11T04:00:13.274Z,1012.29
2018-07-11T04:01:13.078Z,1012.27
2018-07-11T04:02:13.276Z,1012.27
2018-07-11T04:03:13.072Z,1012.28
2018-07-11T04:04:13.072Z,1012.29
2018-07-11T04:05:13.275Z,1012.28
2018-07-11T04:06:13.070Z,1012.28
2018-07-11T04:07:13.075Z,1012.31
2018-07-11T04:08:13.272Z,1012.32
2018-07-11T04:09:13.071Z,1012.32
2018-07-11T04:10:13.275Z,1012.32
2018-07-11T04:11:13.283Z,1012.30
2018-07-11T04:12:13.084Z,1012.31
2018-07-11T04:13:13.070Z,1012.32
2018-07-11T04:14:13.069Z,1012.32
2018-07-11T04:15:13.277Z,1012.35
2018-07-11T04:16:13.273Z,1012.37
2018-07-11T04:17:13.080Z,1012.39
2018-07-11T04:18:13.081Z,1012.36
2018-07-11T04:19:13.090Z,1012.42
2018-07-11T04:20:13.073Z,1012.41
2018-07-11T04:21:13.074Z,1012.44
2018-07-11T04:22:13.276Z,1012.43
2018-07-11T04:23:13.083Z,1012.47
2018-07-11T04:24:13.074Z,1012.47
2018-07-11T04:25:13.286Z,1012.44
2018-07-11T04:26:13.086Z,1012.42
2018-07-11T04:27:13.073Z,1012.45
2018-07-11T04:28:13.081Z,1012.44
2018-07-11T04:29:13.120Z,1012.44
2018-07-11T04:30:13.091Z,1012.50
2018-07-11T04:31:13.075Z,1012.52
2018-07-11T04:32:13.084Z,1012.49
2018-07-11T04:33:13.075Z,1012.54
2018-07-11T04:34:13.073Z,1012.54
2018-07-11T04:35:13.075Z,1012.55
2018-07-11T04:36:13.076Z,1012.55
2018-07-11T04:37:13.077Z,1012.55
2018-07-11T04:38:13.079Z,1012.54
2018-07-11T04:39:13.086Z,1012.55
2018-07-11T04:40:13.076Z,1012.56
2018-07-11T04:41:13.077Z,1012.59
2018-07-11T04:42:13.077Z,1012.65
2018-07-11T04:43:13.097Z,1012.62
2018-07-11T04:44:13.079Z,1012.60
2018-07-11T04:45:13.099Z,1012.63
2018-07-11T04:46:13.086Z,1012.58
2018-07-11T04:47:13.082Z,1012.56
2018-07-11T04:48:13.082Z,1012.54
2018-07-11T04:49:13.298Z,1012.55
2018-07-11T04:50:13.082Z,1012.49
2018-07-11T04:51:13.283Z,1012.52
2018-07-11T04:52:13.082Z,1012.50
2018-07-11T04:53:13.094Z,1012.51
2018-07-11T04:54:13.100Z,1012.56
2018-07-11T04:55:13.085Z,1012.53
2018-07-11T04:56:13.095Z,1012.54
2018-07-11T04:57:13.085Z,1012.51
2018-07-11T04:58:13.084Z,1012.46
2018-07-11T04:59:13.094Z,1012.50
2018-07-11T05:00:13.086Z,1012.47
2018-07-11T05:01:13.097Z,1012.47
2018-07-11T05:02:13.096Z,1012.48
2018-07-11T05:03:13.289Z,1012.51
2018-07-11T05:04:13.088Z,1012.57
2018-07-11T05:05:13.107Z,1012.55
2018-07-11T05:06:13.101Z,1012.59
2018-07-11T05:07:13.099Z,1012.57
2018-07-11T05:08:13.105Z,1012.57
2018-07-11T05:09:13.087Z,1012.60
2018-07-11T05:10:13.090Z,1012.58
2018-07-11T05:11:13.164Z,1012.56
2018-07-11T05:12:13.088Z,1012.61
2018-07-11T05:13:13.089Z,1012.61
2018-07-11T05:14:13.304Z,1012.57
2018-07-11T05:15:13.090Z,1012.56
2018-07-11T05:16:13.128Z,1012.54
2018-07-11T05:17:13.108Z,1012.56
2018-07-11T05:18:13.094Z,1012.57
2018-07-11T05:19:13.091Z,1012.57
2018-07-11T05:20:13.294Z,1012.58
2018-07-11T05:21:13.095Z,1012.59
2018-07-11T05:22:13.116Z,1012.60
2018-07-11T05:23:13.111Z,1012.62
2018-07-11T05:24:13.109Z,1012.62
2018-07-11T05:25:13.109Z,1012.63
2018-07-11T05:26:13.094Z,1012.64
2018-07-11T05:27:13.104Z,1012.64
2018-07-11T05:28:13.094Z,1012.64
2018-07-11T05:29:13.094Z,1012.60
2018-07-11T05:30:13.299Z,1012.58
2018-07-11T05:31:13.107Z,1012.56
2018-07-11T05:32:13.094Z,1012.57
2018-07-11T05:33:13.094Z,1012.61
2018-07-11T05:34:13.108Z,1012.67
2018-07-11T05:35:13.106Z,1012.66
2018-07-11T05:36:13.111Z,1012.65
2018-07-11T05:37:13.096Z,1012.66
2018-07-11T05:38:13.109Z,1012.63
2018-07-11T05:39:13.108Z,1012.62
2018-07-11T05:40:13.118Z,1012.68
2018-07-11T05:41:13.117Z,1012.71
2018-07-11T05:42:13.100Z,1012.71
2018-07-11T05:43:13.100Z,1012.74
2018-07-11T05:44:13.102Z,1012.75
2018-07-11T05:45:13.307Z,1012.74
2018-07-11T05:46:13.116Z,1012.71
2018-07-11T05:47:13.102Z,1012.73
2018-07-11T05:48:13.137Z,1012.73
2018-07-11T05:49:13.116Z,1012.69
2018-07-11T05:50:13.318Z,1012.69
2018-07-11T05:51:13.112Z,1012.68
2018-07-11T05:52:13.209Z,1012.66
2018-07-11T05:53:13.120Z,1012.70
2018-07-11T05:54:13.106Z,1012.67
2018-07-11T05:55:13.120Z,1012.67
2018-07-11T05:56:13.333Z,1012.68
2018-07-11T05:57:13.119Z,1012.69
2018-07-11T05:58:13.322Z,1012.69
2018-07-11T05:59:13.136Z,1012.67
2018-07-11T06:00:13.125Z,1012.66
2018-07-11T06:01:13.130Z,1012.66
2018-07-11T06:02:13.127Z,1012.60
2018-07-11T06:03:13.107Z,1012.61
2018-07-11T06:04:13.110Z,1012.65
2018-07-11T06:05:13.112Z,1012.66
2018-07-11T06:06:13.123Z,1012.67
2018-07-11T06:07:13.118Z,1012.69
2018-07-11T06:08:13.328Z,1012.71
2018-07-11T06:09:13.117Z,1012.71
2018-07-11T06:10:13.112Z,1012.74
2018-07-11T06:11:13.315Z,1012.75
2018-07-11T06:12:13.328Z,1012.74
2018-07-11T06:13:13.150Z,1012.75
2018-07-11T06:14:13.113Z,1012.79
2018-07-11T06:15:13.125Z,1012.77
2018-07-11T06:16:13.335Z,1012.80
2018-07-11T06:17:13.132Z,1012.77
2018-07-11T06:18:13.121Z,1012.81
2018-07-11T06:19:13.120Z,1012.77
2018-07-11T06:20:13.126Z,1012.83
2018-07-11T06:21:13.126Z,1012.80
2018-07-11T06:22:13.119Z,1012.80
2018-07-11T06:23:13.130Z,1012.81
2018-07-11T06:24:13.132Z,1012.82
2018-07-11T06:25:13.144Z,1012.81
2018-07-11T06:26:13.126Z,1012.84
2018-07-11T06:27:13.125Z,1012.86
2018-07-11T06:28:13.132Z,1012.85
2018-07-11T06:29:13.120Z,1012.88
2018-07-11T06:30:13.138Z,1012.91
2018-07-11T06:31:13.134Z,1012.90
2018-07-11T06:32:13.126Z,1012.93
2018-07-11T06:33:13.124Z,1012.99
2018-07-11T06:34:13.127Z,1012.98
2018-07-11T06:35:13.128Z,1012.95
2018-07-11T06:36:13.181Z,1012.96
2018-07-11T06:37:13.125Z,1013.00
2018-07-11T06:38:13.136Z,1012.99
2018-07-11T06:39:13.137Z,1012.97
2018-07-11T06:40:13.126Z,1013.01
2018-07-11T06:41:13.129Z,1013.02
2018-07-11T06:42:13.128Z,1013.00
2018-07-11T06:43:13.335Z,1013.05
2018-07-11T06:44:13.139Z,1013.06
2018-07-11T06:45:13.145Z,1013.10
2018-07-11T06:46:13.133Z,1013.08
2018-07-11T06:47:13.132Z,1013.13
2018-07-11T06:48:13.153Z,1013.16
2018-07-11T06:49:13.135Z,1013.18
2018-07-11T06:50:13.162Z,1013.22
2018-07-11T06:51:13.145Z,1013.24
2018-07-11T06:52:13.185Z,1013.25
2018-07-11T06:53:13.146Z,1013.27
2018-07-11T06:54:13.342Z,1013.31
2018-07-11T06:55:13.157Z,1013.28
2018-07-11T06:56:13.149Z,1013.28
2018-07-11T06:57:13.153Z,1013.25
2018-07-11T06:58:13.153Z,1013.23
2018-07-11T06:59:13.151Z,1013.21
2018-07-11T07:00:13.151Z,1013.18
2018-07-11T07:01:13.146Z,1013.21
2018-07-11T07:02:13.363Z,1013.14
2018-07-11T07:03:13.157Z,1013.14
2018-07-11T07:04:13.164Z,1013.15
2018-07-11T07:05:13.165Z,1013.15
2018-07-11T07:06:13.160Z,1013.17
2018-07-11T07:07:13.153Z,1013.17
2018-07-11T07:08:13.163Z,1013.18
2018-07-11T07:09:13.153Z,1013.17
2018-07-11T07:10:13.369Z,1013.18
2018-07-11T07:11:13.160Z,1013.18
2018-07-11T07:12:13.169Z,1013.17
2018-07-11T07:13:13.160Z,1013.22
2018-07-11T07:14:13.175Z,1013.25
2018-07-11T07:15:13.163Z,1013.23
2018-07-11T07:16:13.161Z,1013.21
2018-07-11T07:17:13.165Z,1013.22
2018-07-11T07:18:13.365Z,1013.23
2018-07-11T07:19:13.367Z,1013.21
2018-07-11T07:20:13.164Z,1013.14
2018-07-11T07:21:13.169Z,1013.12
2018-07-11T07:22:13.372Z,1013.10
2018-07-11T07:23:13.170Z,1013.11
2018-07-11T07:24:13.184Z,1013.11
2018-07-11T07:25:13.174Z,1013.11
2018-07-11T07:26:13.172Z,1013.11
2018-07-11T07:27:13.194Z,1013.12
2018-07-11T07:28:13.383Z,1013.12
2018-07-11T07:29:13.381Z,1013.11
2018-07-11T07:30:13.177Z,1013.10
2018-07-11T07:31:13.188Z,1013.06
2018-07-11T07:32:13.177Z,1013.06
2018-07-11T07:33:13.192Z,1013.08
2018-07-11T07:34:13.395Z,1013.08
2018-07-11T07:35:13.183Z,1013.03
2018-07-11T07:36:13.189Z,1013.03
2018-07-11T07:37:13.184Z,1013.00
2018-07-11T07:38:13.190Z,1013.00
2018-07-11T07:39:13.187Z,1013.01
2018-07-11T07:40:13.189Z,1013.03
2018-07-11T07:41:13.200Z,1013.02
2018-07-11T07:42:13.194Z,1013.04
2018-07-11T07:43:13.206Z,1013.02
2018-07-11T07:44:13.396Z,1013.01
2018-07-11T07:45:13.195Z,1013.02
2018-07-11T07:46:13.400Z,1013.02
2018-07-11T07:47:13.328Z,1013.02
2018-07-11T07:48:13.197Z,1012.98
2018-07-11T07:49:13.202Z,1012.97
2018-07-11T07:50:13.204Z,1013.01
2018-07-11T07:51:13.417Z,1012.99
2018-07-11T07:52:13.204Z,1012.99
2018-07-11T07:53:13.434Z,1012.97
2018-07-11T07:54:13.409Z,1012.97
2018-07-11T07:55:13.412Z,1012.96
2018-07-11T07:56:13.423Z,1012.91
2018-07-11T07:57:13.222Z,1012.92
2018-07-11T07:58:13.226Z,1012.90
2018-07-11T07:59:13.215Z,1012.91
2018-07-11T08:00:13.224Z,1012.92
2018-07-11T08:01:13.449Z,1012.97
2018-07-11T08:02:13.231Z,1012.93
2018-07-11T08:03:13.220Z,1012.97
2018-07-11T08:04:13.233Z,1012.95
2018-07-11T08:05:13.223Z,1013.06
2018-07-11T08:06:13.226Z,1013.01
2018-07-11T08:07:13.225Z,1012.99
2018-07-11T08:08:13.242Z,1012.97
2018-07-11T08:09:13.446Z,1012.92
2018-07-11T08:10:13.233Z,1012.95
2018-07-11T08:11:13.437Z,1012.95
2018-07-11T08:12:13.453Z,1012.95
2018-07-11T08:13:13.236Z,1012.98
2018-07-11T08:14:13.448Z,1012.96
2018-07-11T08:15:13.244Z,1012.94
2018-07-11T08:16:13.253Z,1012.89
2018-07-11T08:17:13.462Z,1012.91
2018-07-11T08:18:13.250Z,1012.93
2018-07-11T08:19:13.261Z,1013.00
2018-07-11T08:20:13.265Z,1012.94
2018-07-11T08:21:13.258Z,1012.96
2018-07-11T08:22:13.467Z,1012.98
2018-07-11T08:23:13.480Z,1012.97
2018-07-11T08:24:13.293Z,1012.94
2018-07-11T08:25:13.496Z,1012.94
2018-07-11T08:26:13.285Z,1012.99
2018-07-11T08:27:13.301Z,1012.93
2018-07-11T08:28:13.486Z,1012.95
2018-07-11T08:29:13.288Z,1012.96
2018-07-11T08:30:13.288Z,1012.95
2018-07-11T08:31:13.291Z,1012.96
2018-07-11T08:32:13.484Z,1012.98
2018-07-11T08:33:13.289Z,1012.97
2018-07-11T08:34:13.295Z,1013.00
2018-07-11T08:35:13.371Z,1012.94
2018-07-11T08:36:13.504Z,1012.93
2018-07-11T08:37:13.292Z,1012.94
2018-07-11T08:38:13.305Z,1012.92
2018-07-11T08:39:13.297Z,1012.89
2018-07-11T08:40:13.501Z,1012.87
2018-07-11T08:41:13.300Z,1012.85
2018-07-11T08:42:13.379Z,1012.80
2018-07-11T08:43:13.304Z,1012.83
2018-07-11T08:44:13.309Z,1012.83
2018-07-11T08:45:13.309Z,1012.83
2018-07-11T08:46:13.313Z,1012.81
2018-07-11T08:47:13.519Z,1012.78
2018-07-11T08:48:13.418Z,1012.78
2018-07-11T08:49:13.317Z,1012.79
2018-07-11T08:50:13.322Z,1012.81
2018-07-11T08:51:13.538Z,1012.78
2018-07-11T08:52:13.336Z,1012.84
2018-07-11T08:53:13.338Z,1012.81
2018-07-11T08:54:13.535Z,1012.79
2018-07-11T08:55:13.422Z,1012.81
2018-07-11T08:56:13.539Z,1012.80
2018-07-11T08:57:13.337Z,1012.79
2018-07-11T08:58:13.369Z,1012.83
2018-07-11T08:59:13.340Z,1012.79
2018-07-11T09:00:13.545Z,1012.81
2018-07-11T09:01:13.548Z,1012.76
2018-07-11T09:02:13.560Z,1012.77
2018-07-11T09:03:13.567Z,1012.80
2018-07-11T09:04:13.359Z,1012.79
2018-07-11T09:05:13.353Z,1012.76
2018-07-11T09:06:13.355Z,1012.77
2018-07-11T09:07:13.357Z,1012.79
2018-07-11T09:08:13.357Z,1012.81
2018-07-11T09:09:13.358Z,1012.79
2018-07-11T09:10:13.566Z,1012.78
2018-07-11T09:11:13.377Z,1012.76
2018-07-11T09:12:13.378Z,1012.78
2018-07-11T09:13:13.380Z,1012.76
2018-07-11T09:14:13.588Z,1012.77
2018-07-11T09:15:13.372Z,1012.74
2018-07-11T09:16:13.387Z,1012.76
2018-07-11T09:17:13.395Z,1012.81
2018-07-11T09:18:13.398Z,1012.81
2018-07-11T09:19:13.391Z,1012.79
2018-07-11T09:20:13.386Z,1012.78
2018-07-11T09:21:13.586Z,1012.76
2018-07-11T09:22:13.416Z,1012.77
2018-07-11T09:23:13.612Z,1012.74
2018-07-11T09:24:13.440Z,1012.78
2018-07-11T09:25:13.413Z,1012.72
2018-07-11T09:26:13.610Z,1012.77
2018-07-11T09:27:13.398Z,1012.80
2018-07-11T09:28:13.400Z,1012.76
2018-07-11T09:29:13.407Z,1012.74
2018-07-11T09:30:13.425Z,1012.77
2018-07-11T09:31:13.622Z,1012.72
2018-07-11T09:32:13.413Z,1012.74
2018-07-11T09:33:13.444Z,1012.68
2018-07-11T09:34:13.420Z,1012.68
2018-07-11T09:35:13.645Z,1012.68
2018-07-11T09:36:13.422Z,1012.65
2018-07-11T09:37:13.431Z,1012.67
2018-07-11T09:38:13.457Z,1012.69
2018-07-11T09:39:13.425Z,1012.68
2018-07-11T09:40:13.429Z,1012.69
2018-07-11T09:41:13.430Z,1012.68
2018-07-11T09:42:13.437Z,1012.63
2018-07-11T09:43:13.453Z,1012.64
2018-07-11T09:44:13.651Z,1012.67
2018-07-11T09:45:13.453Z,1012.63
2018-07-11T09:46:13.446Z,1012.62
2018-07-11T09:47:13.658Z,1012.63
2018-07-11T09:48:13.448Z,1012.64
2018-07-11T09:49:13.453Z,1012.62
2018-07-11T09:50:13.488Z,1012.57
2018-07-11T09:51:13.457Z,1012.55
2018-07-11T09:52:13.479Z,1012.60
2018-07-11T09:53:13.461Z,1012.61
2018-07-11T09:54:13.664Z,1012.60
2018-07-11T09:55:13.466Z,1012.64
2018-07-11T09:56:13.481Z,1012.62
2018-07-11T09:57:13.472Z,1012.58
2018-07-11T09:58:13.479Z,1012.60
2018-07-11T09:59:13.692Z,1012.60
2018-07-11T10:00:13.495Z,1012.57
2018-07-11T10:01:13.479Z,1012.57
2018-07-11T10:02:13.486Z,1012.59
2018-07-11T10:03:13.486Z,1012.53
2018-07-11T10:04:13.691Z,1012.50
2018-07-11T10:05:13.535Z,1012.47
2018-07-11T10:06:13.493Z,1012.50
2018-07-11T10:07:13.497Z,1012.45
2018-07-11T10:08:13.699Z,1012.47
2018-07-11T10:09:13.502Z,1012.48
2018-07-11T10:10:13.506Z,1012.47
2018-07-11T10:11:13.519Z,1012.43
2018-07-11T10:12:13.523Z,1012.42
2018-07-11T10:13:13.512Z,1012.45
2018-07-11T10:14:13.719Z,1012.42
2018-07-11T10:15:13.517Z,1012.43
2018-07-11T10:16:13.520Z,1012.36
2018-07-11T10:17:13.536Z,1012.33
2018-07-11T10:18:13.544Z,1012.34
2018-07-11T10:19:13.538Z,1012.34
2018-07-11T10:20:13.531Z,1012.39
2018-07-11T10:21:13.538Z,1012.34
2018-07-11T10:22:13.535Z,1012.35
2018-07-11T10:23:13.757Z,1012.32
2018-07-11T10:24:13.543Z,1012.37
2018-07-11T10:25:13.558Z,1012.34
2018-07-11T10:26:13.560Z,1012.34
2018-07-11T10:27:13.551Z,1012.32
2018-07-11T10:28:13.554Z,1012.31
2018-07-11T10:29:13.570Z,1012.29
2018-07-11T10:30:13.761Z,1012.34
2018-07-11T10:31:13.575Z,1012.27
2018-07-11T10:32:13.566Z,1012.26
2018-07-11T10:33:13.770Z,1012.22
2018-07-11T10:34:13.573Z,1012.20
2018-07-11T10:35:13.591Z,1012.20
2018-07-11T10:36:13.588Z,1012.22
2018-07-11T10:37:13.782Z,1012.26
2018-07-11T10:38:13.592Z,1012.20
2018-07-11T10:39:13.805Z,1012.18
2018-07-11T10:40:13.590Z,1012.18
2018-07-11T10:41:13.796Z,1012.14
2018-07-11T10:42:13.619Z,1012.17
2018-07-11T10:43:13.798Z,1012.20
2018-07-11T10:44:13.611Z,1012.22
2018-07-11T10:45:13.615Z,1012.21
2018-07-11T10:46:13.610Z,1012.22
2018-07-11T10:47:13.619Z,1012.21
2018-07-11T10:48:13.630Z,1012.21
2018-07-11T10:49:13.615Z,1012.17
2018-07-11T10:50:13.620Z,1012.21
2018-07-11T10:51:13.622Z,1012.15
2018-07-11T10:52:13.828Z,1012.19
2018-07-11T10:53:13.628Z,1012.19
2018-07-11T10:54:13.641Z,1012.16
2018-07-11T10:55:13.659Z,1012.13
2018-07-11T10:56:13.838Z,1012.16
2018-07-11T10:57:13.639Z,1012.12
2018-07-11T10:58:13.653Z,1012.15
2018-07-11T10:59:13.645Z,1012.09
2018-07-11T11:00:35.964Z,1012.03
2018-07-11T11:01:13.916Z,1012.04
2018-07-11T11:02:13.654Z,1011.99
2018-07-11T11:03:13.699Z,1011.96
2018-07-11T11:04:13.657Z,1011.95
2018-07-11T11:05:13.659Z,1012.01
2018-07-11T11:06:13.866Z,1012.02
2018-07-11T11:07:13.664Z,1012.01
2018-07-11T11:08:13.668Z,1012.04
2018-07-11T11:09:13.692Z,1012.00
2018-07-11T11:10:13.684Z,1012.00
2018-07-11T11:11:13.675Z,1011.95
2018-07-11T11:12:13.718Z,1012.01
2018-07-11T11:13:13.697Z,1012.02
2018-07-11T11:14:13.687Z,1011.98
2018-07-11T11:15:13.692Z,1012.05
2018-07-11T11:16:13.705Z,1011.94
2018-07-11T11:17:13.696Z,1011.93
2018-07-11T11:18:13.698Z,1011.92
2018-07-11T11:19:13.698Z,1011.87
2018-07-11T11:20:13.916Z,1011.83
2018-07-11T11:21:13.907Z,1011.97
2018-07-11T11:22:13.712Z,1011.96
2018-07-11T11:23:13.711Z,1011.92
2018-07-11T11:24:13.715Z,1011.96
2018-07-11T11:25:13.720Z,1011.91
2018-07-11T11:26:13.721Z,1011.92
2018-07-11T11:27:13.734Z,1011.91
2018-07-11T11:28:13.725Z,1011.93
2018-07-11T11:29:13.729Z,1011.92
2018-07-11T11:30:13.737Z,1011.90
2018-07-11T11:31:13.744Z,1011.91
2018-07-11T11:32:13.739Z,1011.89
2018-07-11T11:33:13.952Z,1011.87
2018-07-11T11:34:13.748Z,1011.87
2018-07-11T11:35:13.959Z,1011.88
2018-07-11T11:36:13.751Z,1011.89
2018-07-11T11:37:13.770Z,1011.93
2018-07-11T11:38:13.782Z,1011.92
2018-07-11T11:39:13.760Z,1011.92
2018-07-11T11:40:13.763Z,1011.90
2018-07-11T11:41:13.766Z,1011.94
2018-07-11T11:42:14.017Z,1011.96
2018-07-11T11:43:13.786Z,1011.92
2018-07-11T11:44:13.774Z,1011.94
2018-07-11T11:45:13.791Z,1011.94
2018-07-11T11:46:13.779Z,1011.96
2018-07-11T11:47:13.786Z,1011.94
2018-07-11T11:48:13.802Z,1011.91
2018-07-11T11:49:13.789Z,1011.88
2018-07-11T11:50:13.803Z,1011.92
2018-07-11T11:51:14.015Z,1011.86
2018-07-11T11:52:13.799Z,1011.84
2018-07-11T11:53:13.802Z,1011.82
2018-07-11T11:54:13.814Z,1011.81
2018-07-11T11:55:14.008Z,1011.84
2018-07-11T11:56:14.013Z,1011.81
2018-07-11T11:57:13.824Z,1011.82
2018-07-11T11:58:13.834Z,1011.81
2018-07-11T11:59:13.821Z,1011.81
2018-07-11T12:00:13.823Z,1011.82
2018-07-11T12:01:13.827Z,1011.89
2018-07-11T12:02:13.842Z,1011.88
2018-07-11T12:03:13.832Z,1011.89
2018-07-11T12:04:13.853Z,1011.90
2018-07-11T12:05:14.044Z,1011.89